sensor_id;sensor_type;location;lat;lon;timestamp;temperature;humidity
46309;DHT22;32037;50.820;6.494;2023-04-03T00:01:26;10.10;99.90
46309;DHT22;32037;50.820;6.494;2023-04-03T00:03:55;10.10;99.90
46309;DHT22;32037;50.820;6.494;2023-04-03T00:06:24;10.10;99.90
46309;DHT22;32037;50.820;6.494;2023-04-03T00:08:53;10.10;99.90
46309;DHT22;32037;50.820;6.494;2023-04-03T00:11:22;10.00;99.90
46309;DHT22;32037;50.820;6.494;2023-04-03T00:13:51;10.00;99.90
46309;DHT22;32037;50.820;6.494;2023-04-03T00:16:21;10.00;99.90
46309;DHT22;32037;50.820;6.494;2023-04-03T00:18:49;10.00;99.90
46309;DHT22;32037;50.820;6.494;2023-04-03T00:21:18;10.00;99.90
46309;DHT22;32037;50.820;6.494;2023-04-03T00:23:46;10.00;99.90
46309;DHT22;32037;50.820;6.494;2023-04-03T00:26:15;10.00;99.90
46309;DHT22;32037;50.820;6.494;2023-04-03T00:28:44;10.00;99.90
46309;DHT22;32037;50.820;6.494;2023-04-03T00:31:14;10.00;99.90
46309;DHT22;32037;50.820;6.494;2023-04-03T00:33:44;10.00;99.90
46309;DHT22;32037;50.820;6.494;2023-04-03T00:36:13;10.00;99.90
46309;DHT22;32037;50.820;6.494;2023-04-03T00:38:42;10.00;99.90
46309;DHT22;32037;50.820;6.494;2023-04-03T00:41:11;10.00;99.90
46309;DHT22;32037;50.820;6.494;2023-04-03T00:43:39;10.00;99.90
46309;DHT22;32037;50.820;6.494;2023-04-03T00:46:08;10.00;99.90
46309;DHT22;32037;50.820;6.494;2023-04-03T00:48:40;10.00;99.90
46309;DHT22;32037;50.820;6.494;2023-04-03T00:51:13;10.00;99.90
46309;DHT22;32037;50.820;6.494;2023-04-03T00:53:46;10.00;99.90
46309;DHT22;32037;50.820;6.494;2023-04-03T00:56:18;9.90;99.90
46309;DHT22;32037;50.820;6.494;2023-04-03T00:58:50;10.00;99.90
46309;DHT22;32037;50.820;6.494;2023-04-03T01:01:23;10.00;99.90
46309;DHT22;32037;50.820;6.494;2023-04-03T01:03:52;10.00;99.90
46309;DHT22;32037;50.820;6.494;2023-04-03T01:06:27;9.90;99.90
46309;DHT22;32037;50.820;6.494;2023-04-03T01:09:04;9.90;99.90
46309;DHT22;32037;50.820;6.494;2023-04-03T01:11:33;9.90;99.90
46309;DHT22;32037;50.820;6.494;2023-04-03T01:14:02;9.90;99.90
46309;DHT22;32037;50.820;6.494;2023-04-03T01:16:33;9.90;99.90
46309;DHT22;32037;50.820;6.494;2023-04-03T01:19:03;9.90;99.90
46309;DHT22;32037;50.820;6.494;2023-04-03T01:21:54;9.90;99.90
46309;DHT22;32037;50.820;6.494;2023-04-03T01:24:34;9.90;99.90
46309;DHT22;32037;50.820;6.494;2023-04-03T01:27:08;9.90;99.90
46309;DHT22;32037;50.820;6.494;2023-04-03T01:29:37;9.90;99.90
46309;DHT22;32037;50.820;6.494;2023-04-03T01:32:08;9.90;99.90
46309;DHT22;32037;50.820;6.494;2023-04-03T01:34:37;9.90;99.90
46309;DHT22;32037;50.820;6.494;2023-04-03T01:37:06;9.90;99.90
46309;DHT22;32037;50.820;6.494;2023-04-03T01:39:34;9.90;99.90
46309;DHT22;32037;50.820;6.494;2023-04-03T01:42:03;9.90;99.90
46309;DHT22;32037;50.820;6.494;2023-04-03T01:44:37;9.90;99.90
46309;DHT22;32037;50.820;6.494;2023-04-03T01:47:07;9.80;99.90
46309;DHT22;32037;50.820;6.494;2023-04-03T01:49:38;9.90;99.90
46309;DHT22;32037;50.820;6.494;2023-04-03T01:52:07;9.80;99.90
46309;DHT22;32037;50.820;6.494;2023-04-03T01:54:36;9.80;99.90
46309;DHT22;32037;50.820;6.494;2023-04-03T01:57:05;9.80;99.90
46309;DHT22;32037;50.820;6.494;2023-04-03T01:59:35;9.80;99.90
46309;DHT22;32037;50.820;6.494;2023-04-03T02:02:03;9.80;99.90
46309;DHT22;32037;50.820;6.494;2023-04-03T02:04:33;9.80;99.90
46309;DHT22;32037;50.820;6.494;2023-04-03T02:07:02;9.80;99.90
46309;DHT22;32037;50.820;6.494;2023-04-03T02:09:31;9.80;99.90
46309;DHT22;32037;50.820;6.494;2023-04-03T02:12:00;9.80;99.90
46309;DHT22;32037;50.820;6.494;2023-04-03T02:14:30;9.80;99.90
46309;DHT22;32037;50.820;6.494;2023-04-03T02:17:00;9.80;99.90
46309;DHT22;32037;50.820;6.494;2023-04-03T02:19:33;9.80;99.90
46309;DHT22;32037;50.820;6.494;2023-04-03T02:22:02;9.80;99.90
46309;DHT22;32037;50.820;6.494;2023-04-03T02:24:30;9.80;99.90
46309;DHT22;32037;50.820;6.494;2023-04-03T02:27:00;9.80;99.90
46309;DHT22;32037;50.820;6.494;2023-04-03T02:29:28;9.80;99.90
46309;DHT22;32037;50.820;6.494;2023-04-03T02:31:57;9.80;99.90
46309;DHT22;32037;50.820;6.494;2023-04-03T02:34:26;9.80;99.90
46309;DHT22;32037;50.820;6.494;2023-04-03T02:36:57;9.80;99.90
46309;DHT22;32037;50.820;6.494;2023-04-03T02:39:26;9.80;99.90
46309;DHT22;32037;50.820;6.494;2023-04-03T02:41:56;9.80;99.90
46309;DHT22;32037;50.820;6.494;2023-04-03T02:44:25;9.80;99.90
46309;DHT22;32037;50.820;6.494;2023-04-03T02:46:54;9.80;99.90
46309;DHT22;32037;50.820;6.494;2023-04-03T02:49:23;9.80;99.90
46309;DHT22;32037;50.820;6.494;2023-04-03T02:51:52;9.70;99.90
46309;DHT22;32037;50.820;6.494;2023-04-03T02:54:22;9.70;99.90
46309;DHT22;32037;50.820;6.494;2023-04-03T02:56:54;9.70;99.90
46309;DHT22;32037;50.820;6.494;2023-04-03T02:59:22;9.70;99.90
46309;DHT22;32037;50.820;6.494;2023-04-03T03:01:51;9.70;99.90
46309;DHT22;32037;50.820;6.494;2023-04-03T03:04:20;9.70;99.90
46309;DHT22;32037;50.820;6.494;2023-04-03T03:06:49;9.70;99.90
46309;DHT22;32037;50.820;6.494;2023-04-03T03:09:18;9.70;99.90
46309;DHT22;32037;50.820;6.494;2023-04-03T03:11:48;9.70;99.90
46309;DHT22;32037;50.820;6.494;2023-04-03T03:14:16;9.70;99.90
46309;DHT22;32037;50.820;6.494;2023-04-03T03:16:45;9.70;99.90
46309;DHT22;32037;50.820;6.494;2023-04-03T03:19:15;9.70;99.90
46309;DHT22;32037;50.820;6.494;2023-04-03T03:21:44;9.70;99.90
46309;DHT22;32037;50.820;6.494;2023-04-03T03:24:12;9.70;99.90
46309;DHT22;32037;50.820;6.494;2023-04-03T03:26:42;9.70;99.90
46309;DHT22;32037;50.820;6.494;2023-04-03T03:29:13;9.70;99.90
46309;DHT22;32037;50.820;6.494;2023-04-03T03:31:42;9.70;99.90
46309;DHT22;32037;50.820;6.494;2023-04-03T03:34:11;9.60;99.90
46309;DHT22;32037;50.820;6.494;2023-04-03T03:36:40;9.60;99.90
46309;DHT22;32037;50.820;6.494;2023-04-03T03:39:10;9.60;99.90
46309;DHT22;32037;50.820;6.494;2023-04-03T03:41:38;9.60;99.90
46309;DHT22;32037;50.820;6.494;2023-04-03T03:44:07;9.60;99.90
46309;DHT22;32037;50.820;6.494;2023-04-03T03:46:38;9.60;99.90
46309;DHT22;32037;50.820;6.494;2023-04-03T03:49:07;9.60;99.90
46309;DHT22;32037;50.820;6.494;2023-04-03T03:51:36;9.60;99.90
46309;DHT22;32037;50.820;6.494;2023-04-03T03:54:06;9.60;99.90
46309;DHT22;32037;50.820;6.494;2023-04-03T03:56:36;9.60;99.90
46309;DHT22;32037;50.820;6.494;2023-04-03T03:59:04;9.60;99.90
46309;DHT22;32037;50.820;6.494;2023-04-03T04:01:34;9.60;99.90
46309;DHT22;32037;50.820;6.494;2023-04-03T04:04:04;9.60;99.90
46309;DHT22;32037;50.820;6.494;2023-04-03T04:06:33;9.60;99.90
46309;DHT22;32037;50.820;6.494;2023-04-03T04:09:04;9.60;99.90
46309;DHT22;32037;50.820;6.494;2023-04-03T04:11:33;9.60;99.90
46309;DHT22;32037;50.820;6.494;2023-04-03T04:14:02;9.50;99.90
46309;DHT22;32037;50.820;6.494;2023-04-03T04:16:31;9.50;99.90
46309;DHT22;32037;50.820;6.494;2023-04-03T04:19:06;9.50;99.90
46309;DHT22;32037;50.820;6.494;2023-04-03T04:21:38;9.50;99.90
46309;DHT22;32037;50.820;6.494;2023-04-03T04:24:08;9.50;99.90
46309;DHT22;32037;50.820;6.494;2023-04-03T04:26:38;9.50;99.90
46309;DHT22;32037;50.820;6.494;2023-04-03T04:29:09;9.50;99.90
46309;DHT22;32037;50.820;6.494;2023-04-03T04:31:38;9.50;99.90
46309;DHT22;32037;50.820;6.494;2023-04-03T04:34:08;9.50;99.90
46309;DHT22;32037;50.820;6.494;2023-04-03T04:36:37;9.50;99.90
46309;DHT22;32037;50.820;6.494;2023-04-03T04:39:06;9.50;99.90
46309;DHT22;32037;50.820;6.494;2023-04-03T04:41:35;9.50;99.90
46309;DHT22;32037;50.820;6.494;2023-04-03T04:44:05;9.50;99.90
46309;DHT22;32037;50.820;6.494;2023-04-03T04:46:35;9.50;99.90
46309;DHT22;32037;50.820;6.494;2023-04-03T04:49:05;9.50;99.90
46309;DHT22;32037;50.820;6.494;2023-04-03T04:51:35;9.50;99.90
46309;DHT22;32037;50.820;6.494;2023-04-03T04:54:20;9.50;99.90
46309;DHT22;32037;50.820;6.494;2023-04-03T04:56:50;9.50;99.90
46309;DHT22;32037;50.820;6.494;2023-04-03T04:59:19;9.50;99.90
46309;DHT22;32037;50.820;6.494;2023-04-03T05:01:49;9.50;99.90
46309;DHT22;32037;50.820;6.494;2023-04-03T05:04:18;9.50;99.90
46309;DHT22;32037;50.820;6.494;2023-04-03T05:06:52;9.50;99.90
46309;DHT22;32037;50.820;6.494;2023-04-03T05:09:24;9.40;99.90
46309;DHT22;32037;50.820;6.494;2023-04-03T05:11:53;9.40;99.90
46309;DHT22;32037;50.820;6.494;2023-04-03T05:14:27;9.40;99.90
46309;DHT22;32037;50.820;6.494;2023-04-03T05:17:00;9.40;99.90
46309;DHT22;32037;50.820;6.494;2023-04-03T05:19:33;9.40;99.90
46309;DHT22;32037;50.820;6.494;2023-04-03T05:22:04;9.40;99.90
46309;DHT22;32037;50.820;6.494;2023-04-03T05:24:34;9.40;99.90
46309;DHT22;32037;50.820;6.494;2023-04-03T05:27:04;9.40;99.90
46309;DHT22;32037;50.820;6.494;2023-04-03T05:29:36;9.40;99.90
46309;DHT22;32037;50.820;6.494;2023-04-03T05:32:05;9.40;99.90
46309;DHT22;32037;50.820;6.494;2023-04-03T05:34:34;9.40;99.90
46309;DHT22;32037;50.820;6.494;2023-04-03T05:37:05;9.40;99.90
46309;DHT22;32037;50.820;6.494;2023-04-03T05:39:34;9.40;99.90
46309;DHT22;32037;50.820;6.494;2023-04-03T05:42:05;9.40;99.90
46309;DHT22;32037;50.820;6.494;2023-04-03T05:44:34;9.40;99.90
46309;DHT22;32037;50.820;6.494;2023-04-03T05:47:04;9.40;99.90
46309;DHT22;32037;50.820;6.494;2023-04-03T05:49:33;9.40;99.90
46309;DHT22;32037;50.820;6.494;2023-04-03T05:52:03;9.40;99.90
46309;DHT22;32037;50.820;6.494;2023-04-03T05:54:32;9.30;99.90
46309;DHT22;32037;50.820;6.494;2023-04-03T05:57:08;9.30;99.90
46309;DHT22;32037;50.820;6.494;2023-04-03T05:59:36;9.30;99.90
46309;DHT22;32037;50.820;6.494;2023-04-03T06:02:06;9.30;99.90
46309;DHT22;32037;50.820;6.494;2023-04-03T06:04:36;9.30;99.90
46309;DHT22;32037;50.820;6.494;2023-04-03T06:07:06;9.30;99.90
46309;DHT22;32037;50.820;6.494;2023-04-03T06:09:35;9.30;99.90
46309;DHT22;32037;50.820;6.494;2023-04-03T06:12:04;9.30;99.90
46309;DHT22;32037;50.820;6.494;2023-04-03T06:14:33;9.30;99.90
46309;DHT22;32037;50.820;6.494;2023-04-03T06:17:02;9.30;99.90
46309;DHT22;32037;50.820;6.494;2023-04-03T06:19:32;9.30;99.90
46309;DHT22;32037;50.820;6.494;2023-04-03T06:22:01;9.30;99.90
46309;DHT22;32037;50.820;6.494;2023-04-03T06:24:31;9.30;99.90
46309;DHT22;32037;50.820;6.494;2023-04-03T06:27:00;9.30;99.90
46309;DHT22;32037;50.820;6.494;2023-04-03T06:29:29;9.30;99.90
46309;DHT22;32037;50.820;6.494;2023-04-03T06:31:57;9.30;99.90
46309;DHT22;32037;50.820;6.494;2023-04-03T06:34:26;9.30;99.90
46309;DHT22;32037;50.820;6.494;2023-04-03T06:36:55;9.30;99.90
46309;DHT22;32037;50.820;6.494;2023-04-03T06:39:24;9.30;99.90
46309;DHT22;32037;50.820;6.494;2023-04-03T06:41:54;9.30;99.90
46309;DHT22;32037;50.820;6.494;2023-04-03T06:44:35;9.30;99.90
46309;DHT22;32037;50.820;6.494;2023-04-03T06:47:03;9.20;99.90
46309;DHT22;32037;50.820;6.494;2023-04-03T06:49:32;9.30;99.90
46309;DHT22;32037;50.820;6.494;2023-04-03T06:52:01;9.30;99.90
46309;DHT22;32037;50.820;6.494;2023-04-03T06:54:29;9.30;99.90
46309;DHT22;32037;50.820;6.494;2023-04-03T06:57:00;9.30;99.90
46309;DHT22;32037;50.820;6.494;2023-04-03T06:59:28;9.30;99.90
46309;DHT22;32037;50.820;6.494;2023-04-03T07:01:57;9.30;99.90
46309;DHT22;32037;50.820;6.494;2023-04-03T07:04:27;9.30;99.90
46309;DHT22;32037;50.820;6.494;2023-04-03T07:06:56;9.30;99.90
46309;DHT22;32037;50.820;6.494;2023-04-03T07:09:24;9.30;99.90
46309;DHT22;32037;50.820;6.494;2023-04-03T07:11:53;9.30;99.90
46309;DHT22;32037;50.820;6.494;2023-04-03T07:14:23;9.30;99.90
46309;DHT22;32037;50.820;6.494;2023-04-03T07:16:52;9.30;99.90
46309;DHT22;32037;50.820;6.494;2023-04-03T07:19:21;9.30;99.90
46309;DHT22;32037;50.820;6.494;2023-04-03T07:21:51;9.30;99.90
46309;DHT22;32037;50.820;6.494;2023-04-03T07:24:20;9.30;99.90
46309;DHT22;32037;50.820;6.494;2023-04-03T07:26:50;9.30;99.90
46309;DHT22;32037;50.820;6.494;2023-04-03T07:29:19;9.30;99.90
46309;DHT22;32037;50.820;6.494;2023-04-03T07:31:50;9.30;99.90
46309;DHT22;32037;50.820;6.494;2023-04-03T07:34:20;9.40;99.90
46309;DHT22;32037;50.820;6.494;2023-04-03T07:36:49;9.30;99.90
46309;DHT22;32037;50.820;6.494;2023-04-03T07:39:17;9.40;99.90
46309;DHT22;32037;50.820;6.494;2023-04-03T07:41:47;9.40;99.90
46309;DHT22;32037;50.820;6.494;2023-04-03T07:44:16;9.30;99.90
46309;DHT22;32037;50.820;6.494;2023-04-03T07:46:45;9.40;99.90
46309;DHT22;32037;50.820;6.494;2023-04-03T07:49:17;9.30;99.90
46309;DHT22;32037;50.820;6.494;2023-04-03T07:51:46;9.30;99.90
46309;DHT22;32037;50.820;6.494;2023-04-03T07:54:16;9.40;99.90
46309;DHT22;32037;50.820;6.494;2023-04-03T07:56:45;9.40;99.90
46309;DHT22;32037;50.820;6.494;2023-04-03T07:59:14;9.40;99.90
46309;DHT22;32037;50.820;6.494;2023-04-03T08:01:43;9.40;99.90
46309;DHT22;32037;50.820;6.494;2023-04-03T08:04:12;9.40;99.90
46309;DHT22;32037;50.820;6.494;2023-04-03T08:06:43;9.40;99.90
46309;DHT22;32037;50.820;6.494;2023-04-03T08:09:14;9.40;99.90
46309;DHT22;32037;50.820;6.494;2023-04-03T08:11:44;9.40;99.90
46309;DHT22;32037;50.820;6.494;2023-04-03T08:14:13;9.40;99.90
46309;DHT22;32037;50.820;6.494;2023-04-03T08:16:47;9.40;99.90
46309;DHT22;32037;50.820;6.494;2023-04-03T08:19:16;9.50;99.90
46309;DHT22;32037;50.820;6.494;2023-04-03T08:21:54;9.50;99.90
46309;DHT22;32037;50.820;6.494;2023-04-03T08:24:24;9.50;99.90
46309;DHT22;32037;50.820;6.494;2023-04-03T08:26:53;9.50;99.90
46309;DHT22;32037;50.820;6.494;2023-04-03T08:29:22;9.50;99.90
46309;DHT22;32037;50.820;6.494;2023-04-03T08:31:51;9.50;99.90
46309;DHT22;32037;50.820;6.494;2023-04-03T08:34:24;9.50;99.90
46309;DHT22;32037;50.820;6.494;2023-04-03T08:36:54;9.50;99.90
46309;DHT22;32037;50.820;6.494;2023-04-03T08:39:23;9.50;99.90
46309;DHT22;32037;50.820;6.494;2023-04-03T08:41:55;9.50;99.90
46309;DHT22;32037;50.820;6.494;2023-04-03T08:44:34;9.50;99.90
46309;DHT22;32037;50.820;6.494;2023-04-03T08:47:15;9.50;99.90
46309;DHT22;32037;50.820;6.494;2023-04-03T08:49:52;9.50;99.90
46309;DHT22;32037;50.820;6.494;2023-04-03T08:52:32;9.50;99.90
46309;DHT22;32037;50.820;6.494;2023-04-03T08:55:12;9.50;99.90
46309;DHT22;32037;50.820;6.494;2023-04-03T08:57:44;9.60;99.90
46309;DHT22;32037;50.820;6.494;2023-04-03T09:00:18;9.60;99.90
46309;DHT22;32037;50.820;6.494;2023-04-03T09:02:49;9.50;99.90
46309;DHT22;32037;50.820;6.494;2023-04-03T09:05:20;9.50;99.90
46309;DHT22;32037;50.820;6.494;2023-04-03T09:07:59;9.50;99.90
46309;DHT22;32037;50.820;6.494;2023-04-03T09:10:33;9.60;99.90
46309;DHT22;32037;50.820;6.494;2023-04-03T09:13:06;9.60;99.90
46309;DHT22;32037;50.820;6.494;2023-04-03T09:15:40;9.60;99.90
46309;DHT22;32037;50.820;6.494;2023-04-03T09:18:15;9.60;99.90
46309;DHT22;32037;50.820;6.494;2023-04-03T09:20:49;9.60;99.90
46309;DHT22;32037;50.820;6.494;2023-04-03T09:23:28;9.60;99.90
46309;DHT22;32037;50.820;6.494;2023-04-03T09:26:03;9.60;99.90
46309;DHT22;32037;50.820;6.494;2023-04-03T09:28:37;9.60;99.90
46309;DHT22;32037;50.820;6.494;2023-04-03T09:31:20;9.60;99.90
46309;DHT22;32037;50.820;6.494;2023-04-03T09:33:54;9.60;99.90
46309;DHT22;32037;50.820;6.494;2023-04-03T09:36:41;9.60;99.90
46309;DHT22;32037;50.820;6.494;2023-04-03T09:39:15;9.60;99.90
46309;DHT22;32037;50.820;6.494;2023-04-03T09:41:57;9.60;99.90
46309;DHT22;32037;50.820;6.494;2023-04-03T09:44:29;9.60;99.90
46309;DHT22;32037;50.820;6.494;2023-04-03T09:46:59;9.60;99.90
46309;DHT22;32037;50.820;6.494;2023-04-03T09:49:45;9.60;99.90
46309;DHT22;32037;50.820;6.494;2023-04-03T09:52:19;9.50;99.90
46309;DHT22;32037;50.820;6.494;2023-04-03T09:54:49;9.60;99.90
46309;DHT22;32037;50.820;6.494;2023-04-03T09:57:18;9.60;99.90
46309;DHT22;32037;50.820;6.494;2023-04-03T09:59:56;9.60;99.90
46309;DHT22;32037;50.820;6.494;2023-04-03T10:02:35;9.50;99.90
46309;DHT22;32037;50.820;6.494;2023-04-03T10:05:28;9.50;99.90
46309;DHT22;32037;50.820;6.494;2023-04-03T10:08:10;9.50;99.90
46309;DHT22;32037;50.820;6.494;2023-04-03T10:10:41;9.50;99.90
46309;DHT22;32037;50.820;6.494;2023-04-03T10:13:12;9.50;99.90
46309;DHT22;32037;50.820;6.494;2023-04-03T10:15:51;9.50;99.90
46309;DHT22;32037;50.820;6.494;2023-04-03T10:18:36;9.50;99.90
46309;DHT22;32037;50.820;6.494;2023-04-03T10:21:15;9.50;99.90
46309;DHT22;32037;50.820;6.494;2023-04-03T10:23:59;9.50;99.90
46309;DHT22;32037;50.820;6.494;2023-04-03T10:26:38;9.50;99.90
46309;DHT22;32037;50.820;6.494;2023-04-03T10:29:19;9.50;99.90
46309;DHT22;32037;50.820;6.494;2023-04-03T10:31:56;9.50;99.90
46309;DHT22;32037;50.820;6.494;2023-04-03T10:34:30;9.50;99.90
46309;DHT22;32037;50.820;6.494;2023-04-03T10:37:06;9.50;99.90
46309;DHT22;32037;50.820;6.494;2023-04-03T10:39:45;9.50;99.90
46309;DHT22;32037;50.820;6.494;2023-04-03T10:42:21;9.50;99.90
46309;DHT22;32037;50.820;6.494;2023-04-03T10:45:08;9.50;99.90
46309;DHT22;32037;50.820;6.494;2023-04-03T10:47:48;9.50;99.90
46309;DHT22;32037;50.820;6.494;2023-04-03T10:50:43;9.50;99.90
46309;DHT22;32037;50.820;6.494;2023-04-03T10:53:21;9.50;99.90
46309;DHT22;32037;50.820;6.494;2023-04-03T10:55:57;9.40;99.90
46309;DHT22;32037;50.820;6.494;2023-04-03T10:58:34;9.50;99.90
46309;DHT22;32037;50.820;6.494;2023-04-03T11:01:08;9.40;99.90
46309;DHT22;32037;50.820;6.494;2023-04-03T11:03:40;9.50;99.90
46309;DHT22;32037;50.820;6.494;2023-04-03T11:06:11;9.50;99.90
46309;DHT22;32037;50.820;6.494;2023-04-03T11:08:45;9.50;99.90
46309;DHT22;32037;50.820;6.494;2023-04-03T11:11:20;9.40;99.90
46309;DHT22;32037;50.820;6.494;2023-04-03T11:13:56;9.40;99.90
46309;DHT22;32037;50.820;6.494;2023-04-03T11:16:29;9.40;99.90
46309;DHT22;32037;50.820;6.494;2023-04-03T11:19:14;9.40;99.90
46309;DHT22;32037;50.820;6.494;2023-04-03T11:21:54;9.50;99.90
46309;DHT22;32037;50.820;6.494;2023-04-03T11:24:27;9.50;99.90
46309;DHT22;32037;50.820;6.494;2023-04-03T11:26:58;9.40;99.90
46309;DHT22;32037;50.820;6.494;2023-04-03T11:29:34;9.50;99.90
46309;DHT22;32037;50.820;6.494;2023-04-03T11:32:25;9.40;99.90
46309;DHT22;32037;50.820;6.494;2023-04-03T11:34:56;9.40;99.90
46309;DHT22;32037;50.820;6.494;2023-04-03T11:37:31;9.50;99.90
46309;DHT22;32037;50.820;6.494;2023-04-03T11:40:06;9.50;99.90
46309;DHT22;32037;50.820;6.494;2023-04-03T11:42:37;9.50;99.90
46309;DHT22;32037;50.820;6.494;2023-04-03T11:45:30;9.50;99.90
46309;DHT22;32037;50.820;6.494;2023-04-03T11:48:02;9.40;99.90
46309;DHT22;32037;50.820;6.494;2023-04-03T11:50:51;9.40;99.90
46309;DHT22;32037;50.820;6.494;2023-04-03T11:53:41;9.40;99.90
46309;DHT22;32037;50.820;6.494;2023-04-03T11:56:31;9.40;99.90
46309;DHT22;32037;50.820;6.494;2023-04-03T11:59:22;9.40;99.90
46309;DHT22;32037;50.820;6.494;2023-04-03T12:01:53;9.50;99.90
46309;DHT22;32037;50.820;6.494;2023-04-03T12:04:25;9.50;99.90
46309;DHT22;32037;50.820;6.494;2023-04-03T12:07:12;9.40;99.90
46309;DHT22;32037;50.820;6.494;2023-04-03T12:10:16;9.40;99.90
46309;DHT22;32037;50.820;6.494;2023-04-03T12:12:59;9.50;99.90
46309;DHT22;32037;50.820;6.494;2023-04-03T12:15:52;9.50;99.90
46309;DHT22;32037;50.820;6.494;2023-04-03T12:18:48;9.50;99.90
46309;DHT22;32037;50.820;6.494;2023-04-03T12:21:36;9.50;99.90
46309;DHT22;32037;50.820;6.494;2023-04-03T12:24:27;9.50;99.90
46309;DHT22;32037;50.820;6.494;2023-04-03T12:27:09;9.50;99.90
46309;DHT22;32037;50.820;6.494;2023-04-03T12:29:47;9.50;99.90
46309;DHT22;32037;50.820;6.494;2023-04-03T12:32:42;9.50;99.90
46309;DHT22;32037;50.820;6.494;2023-04-03T12:35:21;9.50;99.90
46309;DHT22;32037;50.820;6.494;2023-04-03T12:38:24;9.50;99.90
46309;DHT22;32037;50.820;6.494;2023-04-03T12:41:11;9.50;99.90
46309;DHT22;32037;50.820;6.494;2023-04-03T12:44:00;9.50;99.90
46309;DHT22;32037;50.820;6.494;2023-04-03T12:46:37;9.50;99.90
46309;DHT22;32037;50.820;6.494;2023-04-03T12:49:24;9.50;99.90
46309;DHT22;32037;50.820;6.494;2023-04-03T12:51:55;9.50;99.90
46309;DHT22;32037;50.820;6.494;2023-04-03T12:54:29;9.50;99.90
46309;DHT22;32037;50.820;6.494;2023-04-03T12:57:11;9.50;99.90
46309;DHT22;32037;50.820;6.494;2023-04-03T12:59:41;9.50;99.90
46309;DHT22;32037;50.820;6.494;2023-04-03T13:02:20;9.50;99.90
46309;DHT22;32037;50.820;6.494;2023-04-03T13:04:51;9.50;99.90
46309;DHT22;32037;50.820;6.494;2023-04-03T13:07:22;9.50;99.90
46309;DHT22;32037;50.820;6.494;2023-04-03T13:09:58;9.50;99.90
46309;DHT22;32037;50.820;6.494;2023-04-03T13:12:28;9.50;99.90
46309;DHT22;32037;50.820;6.494;2023-04-03T13:15:00;9.50;99.90
46309;DHT22;32037;50.820;6.494;2023-04-03T13:17:31;9.60;99.90
46309;DHT22;32037;50.820;6.494;2023-04-03T13:20:13;9.60;99.90
46309;DHT22;32037;50.820;6.494;2023-04-03T13:22:48;9.60;99.90
46309;DHT22;32037;50.820;6.494;2023-04-03T13:25:20;9.60;99.90
46309;DHT22;32037;50.820;6.494;2023-04-03T13:27:51;9.60;99.90
46309;DHT22;32037;50.820;6.494;2023-04-03T13:30:40;9.60;99.90
46309;DHT22;32037;50.820;6.494;2023-04-03T13:33:21;9.60;99.90
46309;DHT22;32037;50.820;6.494;2023-04-03T13:35:55;9.60;99.90
46309;DHT22;32037;50.820;6.494;2023-04-03T13:38:26;9.60;99.90
46309;DHT22;32037;50.820;6.494;2023-04-03T13:40:58;9.60;99.90
46309;DHT22;32037;50.820;6.494;2023-04-03T13:43:32;9.60;99.90
46309;DHT22;32037;50.820;6.494;2023-04-03T13:46:05;9.60;99.90
46309;DHT22;32037;50.820;6.494;2023-04-03T13:48:39;9.60;99.90
46309;DHT22;32037;50.820;6.494;2023-04-03T13:51:19;9.60;99.90
46309;DHT22;32037;50.820;6.494;2023-04-03T13:53:52;9.60;99.90
46309;DHT22;32037;50.820;6.494;2023-04-03T13:56:26;9.60;99.90
46309;DHT22;32037;50.820;6.494;2023-04-03T13:59:05;9.60;99.90
46309;DHT22;32037;50.820;6.494;2023-04-03T14:01:42;9.60;99.90
46309;DHT22;32037;50.820;6.494;2023-04-03T14:04:14;9.70;99.90
46309;DHT22;32037;50.820;6.494;2023-04-03T14:06:45;9.70;99.90
46309;DHT22;32037;50.820;6.494;2023-04-03T14:09:14;9.70;99.90
46309;DHT22;32037;50.820;6.494;2023-04-03T14:11:44;9.70;99.90
46309;DHT22;32037;50.820;6.494;2023-04-03T14:14:17;9.70;99.90
46309;DHT22;32037;50.820;6.494;2023-04-03T14:16:50;9.70;99.90
46309;DHT22;32037;50.820;6.494;2023-04-03T14:19:22;9.70;99.90
46309;DHT22;32037;50.820;6.494;2023-04-03T14:21:53;9.70;99.90
46309;DHT22;32037;50.820;6.494;2023-04-03T14:24:22;9.70;99.90
46309;DHT22;32037;50.820;6.494;2023-04-03T14:26:53;9.70;99.90
46309;DHT22;32037;50.820;6.494;2023-04-03T14:29:23;9.70;99.90
46309;DHT22;32037;50.820;6.494;2023-04-03T14:31:52;9.70;99.90
46309;DHT22;32037;50.820;6.494;2023-04-03T14:34:38;9.70;99.90
46309;DHT22;32037;50.820;6.494;2023-04-03T14:37:10;9.70;99.90
46309;DHT22;32037;50.820;6.494;2023-04-03T14:39:39;9.70;99.90
46309;DHT22;32037;50.820;6.494;2023-04-03T14:42:12;9.70;99.90
46309;DHT22;32037;50.820;6.494;2023-04-03T14:44:42;9.70;99.90
46309;DHT22;32037;50.820;6.494;2023-04-03T14:47:12;9.80;99.90
46309;DHT22;32037;50.820;6.494;2023-04-03T14:49:56;9.80;99.90
46309;DHT22;32037;50.820;6.494;2023-04-03T14:52:27;9.70;99.90
46309;DHT22;32037;50.820;6.494;2023-04-03T14:54:56;9.80;99.90
46309;DHT22;32037;50.820;6.494;2023-04-03T14:57:26;9.80;99.90
46309;DHT22;32037;50.820;6.494;2023-04-03T14:59:58;9.80;99.90
46309;DHT22;32037;50.820;6.494;2023-04-03T15:02:30;9.80;99.90
46309;DHT22;32037;50.820;6.494;2023-04-03T15:05:04;9.80;99.90
46309;DHT22;32037;50.820;6.494;2023-04-03T15:07:35;9.80;99.90
46309;DHT22;32037;50.820;6.494;2023-04-03T15:10:15;9.80;99.90
46309;DHT22;32037;50.820;6.494;2023-04-03T15:12:45;9.80;99.90
46309;DHT22;32037;50.820;6.494;2023-04-03T15:15:18;9.80;99.90
46309;DHT22;32037;50.820;6.494;2023-04-03T15:17:51;9.80;99.90
46309;DHT22;32037;50.820;6.494;2023-04-03T15:20:23;9.80;99.90
46309;DHT22;32037;50.820;6.494;2023-04-03T15:22:53;9.80;99.90
46309;DHT22;32037;50.820;6.494;2023-04-03T15:25:23;9.90;99.90
46309;DHT22;32037;50.820;6.494;2023-04-03T15:27:53;9.90;99.90
46309;DHT22;32037;50.820;6.494;2023-04-03T15:30:23;9.90;99.90
46309;DHT22;32037;50.820;6.494;2023-04-03T15:32:52;9.80;99.90
46309;DHT22;32037;50.820;6.494;2023-04-03T15:35:21;9.90;99.90
46309;DHT22;32037;50.820;6.494;2023-04-03T15:37:50;9.90;99.90
46309;DHT22;32037;50.820;6.494;2023-04-03T15:40:19;9.90;99.90
46309;DHT22;32037;50.820;6.494;2023-04-03T15:42:48;9.90;99.90
46309;DHT22;32037;50.820;6.494;2023-04-03T15:45:20;9.90;99.90
46309;DHT22;32037;50.820;6.494;2023-04-03T15:47:51;9.90;99.90
46309;DHT22;32037;50.820;6.494;2023-04-03T15:50:20;9.90;99.90
46309;DHT22;32037;50.820;6.494;2023-04-03T15:52:50;9.90;99.90
46309;DHT22;32037;50.820;6.494;2023-04-03T15:55:21;9.90;99.90
46309;DHT22;32037;50.820;6.494;2023-04-03T15:57:51;9.90;99.90
46309;DHT22;32037;50.820;6.494;2023-04-03T16:00:21;9.90;99.90
46309;DHT22;32037;50.820;6.494;2023-04-03T16:02:54;10.00;99.90
46309;DHT22;32037;50.820;6.494;2023-04-03T16:05:24;10.00;99.90
46309;DHT22;32037;50.820;6.494;2023-04-03T16:07:53;10.00;99.90
46309;DHT22;32037;50.820;6.494;2023-04-03T16:10:22;10.00;99.90
46309;DHT22;32037;50.820;6.494;2023-04-03T16:12:52;10.00;99.90
46309;DHT22;32037;50.820;6.494;2023-04-03T16:15:21;10.00;99.90
46309;DHT22;32037;50.820;6.494;2023-04-03T16:17:55;10.00;99.90
46309;DHT22;32037;50.820;6.494;2023-04-03T16:20:24;10.00;99.90